VTSE/CJM METAR and TAF weather

Enter ICAO airport designator
Station Type Date Time Source
VTSE METAR 2019/12/16 03:00 UTC NOAA

VTSE 160300Z 05005KT 350V100 9000 FEW024 31/25 Q1012 NOSIG


Station Type Date Time Source
VTSE Decoded METAR 2019/12/16 03:00 UTC NOAA

Station name not available
Dec 15, 2019 - 10:00 PM EST / 2019.12.16 0300 UTC
Wind: from the NE (050 degrees) at 6 MPH (5 KT) (direction variable):0
Visibility: 5 mile(s):0
Sky conditions: mostly clear
Temperature: 87 F (31 C)
Heat index: 97.5 F (36.4 C):1
Dew Point: 77 F (25 C)
Relative Humidity: 70%
Pressure (altimeter): 29.88 in. Hg (1012 hPa)
ob: VTSE 160300Z 05005KT 350V100 9000 FEW024 31/25 Q1012 NOSIG
cycle: 3

Station Type Date Time Source
VTSE TAF 2019/12/15 18:00 UTC NOAA

TAF VTSE 151700Z 1518/1618 32003KT 9000 FEW020
BECMG 1521/1523 5000 BR
BECMG 1602/1604 04010KT 9999 NSW
BECMG 1614/1616 32003KT

Example: see airport list